Time;durP1;ratioP1;P1;durP2;ratioP2;P2;SDS_P1;SDS_P2;PMS_P1;PMS_P2;Temp;Humidity;BMP_temperature;BMP_pressure;BME280_temperature;BME280_humidity;BME280_pressure;Samples;Min_cycle;Max_cycle;Signal;HPM_P1;HPM_P2
2023/03/13 00:01:20;;;;;;;22.92;5.35;;;;;;;9.23;100.00;100085.28;5011926;28;20043;-70
2023/03/13 00:03:45;;;;;;;26.40;5.72;;;;;;;9.19;100.00;100082.25;4977023;28;20065;-70
2023/03/13 00:06:11;;;;;;;24.08;5.68;;;;;;;9.19;100.00;100067.91;4994507;28;20151;-69
2023/03/13 00:08:36;;;;;;;26.27;5.38;;;;;;;9.17;100.00;100064.63;4994757;28;20121;-70
2023/03/13 00:11:06;;;;;;;24.08;5.55;;;;;;;9.16;100.00;100063.81;4994450;28;21843;-71
2023/03/13 00:13:32;;;;;;;25.67;6.07;;;;;;;9.17;100.00;100060.06;5003159;28;20037;-72
2023/03/13 00:16:01;;;;;;;24.05;5.78;;;;;;;9.14;100.00;100048.91;4996099;28;20061;-72
2023/03/13 00:18:26;;;;;;;32.17;5.95;;;;;;;9.12;100.00;100041.06;5012350;28;20029;-70
2023/03/13 00:21:03;;;;;;;31.42;5.63;;;;;;;9.11;100.00;100031.31;4993993;28;20118;-69
2023/03/13 00:23:29;;;;;;;24.30;5.00;;;;;;;9.10;100.00;100026.13;4994517;28;20205;-70
2023/03/13 00:25:57;;;;;;;26.13;5.05;;;;;;;9.07;100.00;100026.63;4993469;28;20545;-72
2023/03/13 00:28:22;;;;;;;24.23;5.55;;;;;;;9.05;100.00;100021.44;5013352;28;20104;-69
2023/03/13 00:30:47;;;;;;;26.13;6.07;;;;;;;9.03;100.00;100016.28;5013765;28;20183;-69
2023/03/13 00:33:13;;;;;;;25.33;5.60;;;;;;;9.03;100.00;100010.09;5013577;28;20026;-68
2023/03/13 00:35:38;;;;;;;21.40;5.28;;;;;;;9.00;100.00;100000.56;5010584;28;20034;-71
2023/03/13 00:38:03;;;;;;;27.08;6.10;;;;;;;8.99;100.00;99998.91;4993972;28;20504;-69
2023/03/13 00:40:29;;;;;;;30.92;6.43;;;;;;;9.00;100.00;99987.06;4994155;28;20110;-71
2023/03/13 00:42:54;;;;;;;25.95;5.93;;;;;;;8.99;100.00;99982.72;5007714;28;20113;-72
2023/03/13 00:45:19;;;;;;;24.10;5.45;;;;;;;8.98;100.00;99980.25;5013394;28;20120;-69
2023/03/13 00:47:45;;;;;;;26.73;5.57;;;;;;;9.01;100.00;99977.94;5019262;28;20050;-71
2023/03/13 00:50:10;;;;;;;24.00;5.68;;;;;;;9.03;100.00;99977.69;5033512;28;20026;-69
2023/03/13 00:52:35;;;;;;;26.83;6.00;;;;;;;9.00;100.00;99961.97;5030278;28;20030;-72
2023/03/13 00:55:01;;;;;;;26.52;5.25;;;;;;;8.98;100.00;99948.72;5013149;28;20057;-69
2023/03/13 00:57:26;;;;;;;23.20;5.25;;;;;;;9.00;100.00;99949.28;5013413;28;20056;-69
2023/03/13 00:59:51;;;;;;;24.63;5.38;;;;;;;9.00;100.00;99951.19;5012535;28;20084;-72
2023/03/13 01:02:16;;;;;;;25.08;5.85;;;;;;;9.02;100.00;99943.66;5010997;28;20092;-70
2023/03/13 01:04:42;;;;;;;22.27;5.50;;;;;;;9.02;100.00;99936.38;5013085;28;20033;-71
2023/03/13 01:07:07;;;;;;;26.58;5.82;;;;;;;9.04;100.00;99936.13;5011815;28;20037;-72
2023/03/13 01:09:32;;;;;;;25.30;5.80;;;;;;;9.02;100.00;99928.28;5012461;28;20084;-69
2023/03/13 01:11:57;;;;;;;21.00;5.60;;;;;;;9.03;100.00;99913.75;5015506;28;20072;-72
2023/03/13 01:14:23;;;;;;;23.63;5.20;;;;;;;9.07;100.00;99916.78;5032941;28;20029;-70
2023/03/13 01:16:48;;;;;;;22.02;5.95;;;;;;;9.06;100.00;99907.06;5030947;28;20025;-70
2023/03/13 01:19:15;;;;;;;21.30;5.13;;;;;;;9.09;100.00;99900.34;5021692;28;20062;-72
2023/03/13 01:21:42;;;;;;;22.20;5.63;;;;;;;9.11;100.00;99898.25;5012722;28;20421;-69
2023/03/13 01:24:08;;;;;;;19.92;4.85;;;;;;;9.12;100.00;99894.47;5011551;28;20110;-70
2023/03/13 01:26:33;;;;;;;19.50;4.90;;;;;;;9.15;100.00;99877.78;5012145;28;20465;-70
2023/03/13 01:28:59;;;;;;;20.65;5.60;;;;;;;9.18;100.00;99861.16;5011372;28;20034;-71
2023/03/13 01:31:27;;;;;;;20.92;5.22;;;;;;;9.22;100.00;99864.97;5015567;28;20029;-70
2023/03/13 01:33:55;;;;;;;23.02;4.50;;;;;;;9.23;100.00;99864.75;5014643;28;20501;-70
2023/03/13 01:36:21;;;;;;;22.60;5.20;;;;;;;9.25;100.00;99867.19;5032554;28;20033;-71
2023/03/13 01:38:51;;;;;;;18.50;4.90;;;;;;;9.29;100.00;99868.38;5014692;28;20070;-72
2023/03/13 01:41:18;;;;;;;16.80;5.13;;;;;;;9.32;100.00;99862.47;5032620;28;20060;-72
2023/03/13 01:43:44;;;;;;;15.90;4.55;;;;;;;9.34;100.00;99854.94;5026827;28;20040;-72
2023/03/13 01:46:17;;;;;;;18.30;4.60;;;;;;;9.38;100.00;99858.81;4992935;28;20097;-71
2023/03/13 01:49:01;;;;;;;15.90;4.57;;;;;;;9.43;100.00;99849.19;4996184;28;20483;-72
2023/03/13 01:51:30;;;;;;;14.55;4.00;;;;;;;9.45;100.00;99842.47;5032497;28;20044;-71
2023/03/13 01:54:10;;;;;;;15.13;4.75;;;;;;;9.47;100.00;99832.25;5014433;28;20032;-70
2023/03/13 01:56:51;;;;;;;17.52;4.28;;;;;;;9.51;100.00;99835.28;5032259;28;20453;-69
2023/03/13 01:59:21;;;;;;;16.63;4.07;;;;;;;9.51;100.00;99821.78;5032609;28;20114;-72
2023/03/13 02:01:49;;;;;;;15.30;3.95;;;;;;;9.55;100.00;99817.53;5000584;28;20161;-72
2023/03/13 02:04:17;;;;;;;13.75;4.10;;;;;;;9.56;100.00;99808.38;5012170;28;20551;-70
2023/03/13 02:06:46;;;;;;;11.02;3.90;;;;;;;9.60;100.00;99803.28;5019459;28;20426;-69
2023/03/13 02:09:19;;;;;;;12.18;3.88;;;;;;;9.64;100.00;99793.66;5032016;28;20029;-70
2023/03/13 02:12:03;;;;;;;12.48;3.88;;;;;;;9.67;100.00;99788.56;5031272;28;20053;-70
2023/03/13 02:14:33;;;;;;;15.40;4.15;;;;;;;9.67;100.00;99776.94;5012546;28;20033;-70
2023/03/13 02:17:00;;;;;;;14.27;4.00;;;;;;;9.70;100.00;99773.75;5012321;28;20117;-71
2023/03/13 02:19:38;;;;;;;12.23;3.85;;;;;;;9.73;100.00;99765.16;5010353;28;20045;-69
2023/03/13 02:22:19;;;;;;;13.45;3.97;;;;;;;9.76;100.00;99748.44;5012515;28;20034;-69
2023/03/13 02:25:19;;;;;;;14.30;4.47;;;;;;;9.80;100.00;99733.38;5013836;28;20061;-70
2023/03/13 02:27:46;;;;;;;11.20;4.03;;;;;;;9.81;100.00;99729.59;4981639;28;20058;-71
2023/03/13 02:30:13;;;;;;;11.73;4.30;;;;;;;9.83;100.00;99729.34;5012178;28;20350;-70
2023/03/13 02:32:39;;;;;;;16.15;4.68;;;;;;;9.86;100.00;99734.28;5012367;28;20022;-69
2023/03/13 02:35:11;;;;;;;12.57;4.72;;;;;;;9.86;100.00;99742.41;5005847;28;20452;-69
2023/03/13 02:37:39;;;;;;;11.75;4.18;;;;;;;9.88;100.00;99741.06;4992220;28;20134;-69
2023/03/13 02:40:10;;;;;;;9.75;4.43;;;;;;;9.90;100.00;99733.53;4992273;28;20034;-68
2023/03/13 02:42:39;;;;;;;12.98;4.63;;;;;;;9.91;100.00;99729.75;4975269;28;20097;-71
2023/03/13 02:45:05;;;;;;;12.75;4.45;;;;;;;9.92;100.00;99723.28;4997325;28;20042;-72
2023/03/13 02:47:31;;;;;;;11.20;5.13;;;;;;;9.97;100.00;99733.34;5010964;28;20104;-70
2023/03/13 02:49:56;;;;;;;10.65;4.55;;;;;;;9.99;100.00;99736.63;5011089;28;20034;-71
2023/03/13 02:52:26;;;;;;;9.35;5.03;;;;;;;10.00;100.00;99713.94;5014932;28;20038;-70
2023/03/13 02:54:59;;;;;;;8.30;4.75;;;;;;;10.03;100.00;99716.16;5014043;28;20362;-70
2023/03/13 02:57:24;;;;;;;8.93;5.07;;;;;;;10.05;100.00;99719.41;5013363;28;20034;-72
2023/03/13 02:59:50;;;;;;;9.88;5.25;;;;;;;10.10;100.00;99724.09;5033351;28;20039;-70
2023/03/13 03:02:15;;;;;;;8.65;5.35;;;;;;;10.15;100.00;99718.75;5014018;28;20026;-69
2023/03/13 03:04:40;;;;;;;10.25;5.03;;;;;;;10.20;100.00;99724.19;5014549;28;20038;-67
2023/03/13 03:07:05;;;;;;;12.20;5.22;;;;;;;10.21;100.00;99712.34;5005801;28;20069;-69
2023/03/13 03:09:31;;;;;;;10.05;5.32;;;;;;;10.24;100.00;99724.53;5014688;28;20064;-69
2023/03/13 03:11:56;;;;;;;11.43;5.40;;;;;;;10.28;100.00;99726.50;5013035;28;20041;-67
2023/03/13 03:14:22;;;;;;;10.52;5.50;;;;;;;10.27;100.00;99726.75;5014179;28;20069;-70
2023/03/13 03:16:47;;;;;;;12.07;5.18;;;;;;;10.28;100.00;99721.09;5014627;28;20117;-68
2023/03/13 03:19:12;;;;;;;10.57;4.97;;;;;;;10.31;100.00;99727.88;5014317;28;20034;-70
2023/03/13 03:21:38;;;;;;;8.57;5.40;;;;;;;10.29;100.00;99716.47;5014752;28;20056;-68
2023/03/13 03:24:04;;;;;;;7.93;5.40;;;;;;;10.32;100.00;99721.38;5034975;28;20068;-70
2023/03/13 03:26:29;;;;;;;8.38;5.00;;;;;;;10.34;100.00;99722.00;5028022;28;20033;-69
2023/03/13 03:28:55;;;;;;;7.07;5.35;;;;;;;10.37;100.00;99713.38;5014007;28;20037;-68
2023/03/13 03:31:20;;;;;;;9.38;5.10;;;;;;;10.40;100.00;99712.03;4996646;28;20033;-69
2023/03/13 03:33:45;;;;;;;7.97;5.30;;;;;;;10.39;100.00;99705.84;5012795;28;20076;-68
2023/03/13 03:36:14;;;;;;;9.70;5.63;;;;;;;10.44;100.00;99714.00;5013230;28;20029;-69
2023/03/13 03:38:41;;;;;;;11.02;5.35;;;;;;;10.45;100.00;99707.53;5014356;28;20104;-68
2023/03/13 03:41:08;;;;;;;8.48;5.35;;;;;;;10.48;100.00;99705.38;5017412;28;20044;-70
2023/03/13 03:43:34;;;;;;;8.35;6.03;;;;;;;10.46;100.00;99703.75;5029106;28;20029;-71
2023/03/13 03:46:00;;;;;;;8.60;5.57;;;;;;;10.48;100.00;99698.09;5031757;28;20033;-71
2023/03/13 03:48:25;;;;;;;10.25;5.97;;;;;;;10.49;100.00;99697.00;5014574;28;20060;-69
2023/03/13 03:50:51;;;;;;;9.43;5.70;;;;;;;10.50;100.00;99704.06;5017907;28;20045;-70
2023/03/13 03:53:16;;;;;;;10.13;6.40;;;;;;;10.51;100.00;99712.97;5012008;28;20033;-69
2023/03/13 03:55:41;;;;;;;9.70;6.10;;;;;;;10.52;100.00;99703.81;5012676;28;20030;-67
2023/03/13 03:58:07;;;;;;;9.82;6.30;;;;;;;10.57;100.00;99704.69;5012636;28;20114;-67
2023/03/13 04:00:32;;;;;;;12.68;6.30;;;;;;;10.58;100.00;99694.69;5028249;28;20064;-69
2023/03/13 04:02:57;;;;;;;10.73;6.22;;;;;;;10.62;100.00;99695.81;5012281;28;20026;-71
2023/03/13 04:05:23;;;;;;;11.10;6.30;;;;;;;10.62;100.00;99696.63;5014421;28;20025;-71
2023/03/13 04:07:48;;;;;;;11.13;6.50;;;;;;;10.65;100.00;99689.91;5019343;28;20030;-70
2023/03/13 04:10:14;;;;;;;13.48;6.65;;;;;;;10.68;100.00;99689.38;5012272;28;20038;-70
2023/03/13 04:12:40;;;;;;;9.23;6.97;;;;;;;10.77;100.00;99687.06;4995733;28;20036;-70
2023/03/13 04:15:06;;;;;;;7.45;5.95;;;;;;;10.76;100.00;99688.09;5012791;28;20037;-69
2023/03/13 04:17:32;;;;;;;8.52;6.07;;;;;;;10.77;100.00;99687.06;5012181;28;20104;-71
2023/03/13 04:19:57;;;;;;;8.48;6.40;;;;;;;10.82;100.00;99687.94;5027220;28;20057;-68
2023/03/13 04:22:22;;;;;;;9.43;5.95;;;;;;;10.82;100.00;99666.28;5012563;28;20061;-69
2023/03/13 04:24:48;;;;;;;7.43;5.60;;;;;;;10.87;100.00;99665.50;5012154;28;20061;-69
2023/03/13 04:27:13;;;;;;;8.63;5.60;;;;;;;10.91;100.00;99663.09;5012944;28;20041;-70
2023/03/13 04:29:39;;;;;;;10.70;5.72;;;;;;;10.95;100.00;99650.69;5031928;28;20034;-68
2023/03/13 04:32:04;;;;;;;13.75;6.05;;;;;;;11.03;100.00;99658.31;5021721;28;20030;-70
2023/03/13 04:34:29;;;;;;;9.98;5.18;;;;;;;11.06;100.00;99636.16;5013217;28;20446;-71
2023/03/13 04:36:55;;;;;;;8.07;4.78;;;;;;;11.09;100.00;99640.25;5012948;28;20065;-68
2023/03/13 04:39:24;;;;;;;9.38;4.75;;;;;;;11.11;100.00;99633.50;5011937;28;20036;-70
2023/03/13 04:41:53;;;;;;;8.52;4.78;;;;;;;11.11;100.00;99636.22;5023048;28;20476;-69
2023/03/13 04:44:19;;;;;;;7.93;4.70;;;;;;;11.15;100.00;99626.47;5013508;28;20038;-69
2023/03/13 04:46:45;;;;;;;5.88;4.30;;;;;;;11.18;100.00;99634.09;5012654;28;20080;-70
2023/03/13 04:49:10;;;;;;;5.78;4.20;;;;;;;11.24;100.00;99626.00;5012804;28;20046;-71
2023/03/13 04:51:35;;;;;;;7.85;4.30;;;;;;;11.24;100.00;99623.31;5012592;28;20030;-69
2023/03/13 04:54:01;;;;;;;4.75;3.60;;;;;;;11.28;100.00;99616.31;5010808;28;20045;-69
2023/03/13 04:56:27;;;;;;;6.05;4.13;;;;;;;11.30;100.00;99627.69;5022378;28;20030;-71
2023/03/13 04:58:53;;;;;;;6.72;3.75;;;;;;;11.35;100.00;99631.25;5012686;28;20030;-69
2023/03/13 05:01:18;;;;;;;8.20;3.95;;;;;;;11.35;100.00;99622.28;5010122;28;20381;-69
2023/03/13 05:03:44;;;;;;;7.78;4.30;;;;;;;11.37;100.00;99612.03;5013453;28;20484;-71
2023/03/13 05:06:10;;;;;;;6.60;3.78;;;;;;;11.43;100.00;99618.28;5012041;28;20041;-68
2023/03/13 05:08:35;;;;;;;8.35;4.03;;;;;;;11.45;100.00;99611.53;5012313;28;20057;-70
2023/03/13 05:11:01;;;;;;;8.27;3.85;;;;;;;11.48;100.00;99613.72;5012578;28;20076;-69
2023/03/13 05:13:27;;;;;;;7.22;3.80;;;;;;;11.52;100.00;99612.13;5009481;28;20049;-68
2023/03/13 05:15:52;;;;;;;8.05;3.70;;;;;;;11.53;100.00;99613.75;5026529;28;20113;-70
2023/03/13 05:18:17;;;;;;;7.43;3.90;;;;;;;11.59;100.00;99594.81;5011814;28;20116;-69
2023/03/13 05:20:43;;;;;;;11.18;3.33;;;;;;;11.59;100.00;99594.81;5012054;28;20030;-68
2023/03/13 05:23:08;;;;;;;7.88;3.47;;;;;;;11.61;100.00;99598.06;5010802;28;20037;-69
2023/03/13 05:25:33;;;;;;;8.13;3.42;;;;;;;11.62;100.00;99603.22;5012752;28;20109;-70
2023/03/13 05:27:59;;;;;;;6.75;3.50;;;;;;;11.69;100.00;99594.88;5011443;28;20032;-70
2023/03/13 05:30:24;;;;;;;7.78;3.63;;;;;;;11.67;100.00;99586.19;5011458;28;20052;-68
2023/03/13 05:32:49;;;;;;;9.05;3.33;;;;;;;11.70;100.00;99591.09;4995945;28;20034;-69
2023/03/13 05:35:15;;;;;;;7.80;3.22;;;;;;;11.72;100.00;99588.94;5011820;28;20021;-69
2023/03/13 05:37:40;;;;;;;6.10;3.38;;;;;;;11.73;100.00;99595.16;5011640;28;20041;-69
2023/03/13 05:40:06;;;;;;;8.73;3.67;;;;;;;11.70;100.00;99594.63;4992544;28;20088;-71
2023/03/13 05:42:31;;;;;;;9.80;3.00;;;;;;;11.76;100.00;99594.63;5008248;28;20390;-69
2023/03/13 05:44:56;;;;;;;6.38;3.20;;;;;;;11.76;100.00;99592.75;5011687;28;20038;-71
2023/03/13 05:47:22;;;;;;;5.82;3.05;;;;;;;11.81;100.00;99587.34;5011593;28;20049;-70
2023/03/13 05:49:47;;;;;;;5.20;2.78;;;;;;;11.78;100.00;99598.72;5014826;28;20060;-70
2023/03/13 05:52:12;;;;;;;8.02;2.97;;;;;;;11.79;100.00;99589.50;5021854;28;20026;-68
2023/03/13 05:54:38;;;;;;;6.20;3.10;;;;;;;11.83;100.00;99587.06;5009737;28;20041;-68
2023/03/13 05:57:03;;;;;;;7.07;2.83;;;;;;;11.81;100.00;99591.97;5010723;28;20112;-69
2023/03/13 05:59:28;;;;;;;8.77;2.95;;;;;;;11.83;100.00;99597.91;5011685;28;20026;-68
2023/03/13 06:01:54;;;;;;;10.20;3.20;;;;;;;11.86;100.00;99594.69;5007178;28;20038;-68
2023/03/13 06:04:19;;;;;;;9.48;3.30;;;;;;;11.84;100.00;99608.50;5008463;28;20496;-69
2023/03/13 06:06:45;;;;;;;5.40;2.60;;;;;;;11.91;100.00;99607.44;5020148;28;20113;-70
2023/03/13 06:09:10;;;;;;;10.25;2.95;;;;;;;11.91;100.00;99602.00;5011444;28;20034;-69
2023/03/13 06:11:36;;;;;;;8.18;3.25;;;;;;;11.94;100.00;99602.34;5011913;28;20149;-68
2023/03/13 06:14:01;;;;;;;7.95;3.13;;;;;;;11.94;100.00;99602.34;5008772;28;20068;-69
2023/03/13 06:16:27;;;;;;;10.48;3.00;;;;;;;11.96;100.00;99602.09;4988755;28;20525;-68
2023/03/13 06:18:52;;;;;;;11.45;3.15;;;;;;;12.00;100.00;99597.75;4991549;28;20038;-69
2023/03/13 06:21:17;;;;;;;8.57;3.10;;;;;;;11.96;100.00;99599.38;4995463;28;20036;-71
2023/03/13 06:23:43;;;;;;;8.30;3.15;;;;;;;11.94;100.00;99585.25;5009702;28;20080;-68
2023/03/13 06:26:08;;;;;;;8.57;3.05;;;;;;;11.98;100.00;99581.75;5029862;28;20041;-69
2023/03/13 06:28:33;;;;;;;8.20;3.00;;;;;;;11.96;100.00;99580.41;5016519;28;20049;-70
2023/03/13 06:31:04;;;;;;;7.82;3.00;;;;;;;12.01;100.00;99602.09;5013806;28;20476;-69
2023/03/13 06:33:30;;;;;;;8.40;3.00;;;;;;;12.01;100.00;99592.06;5014664;28;20049;-69
2023/03/13 06:35:56;;;;;;;7.85;3.15;;;;;;;12.02;100.00;99590.19;4997346;28;20026;-71
2023/03/13 06:38:21;;;;;;;8.32;3.08;;;;;;;12.03;100.00;99589.06;5013636;28;20068;-71
2023/03/13 06:40:46;;;;;;;9.38;3.00;;;;;;;12.04;100.00;99593.44;5014983;28;20058;-71
2023/03/13 06:43:12;;;;;;;8.13;3.10;;;;;;;12.03;100.00;99586.38;5021626;28;20029;-68
2023/03/13 06:45:37;;;;;;;11.85;3.75;;;;;;;12.04;100.00;99574.44;5014122;28;20458;-68
2023/03/13 06:48:03;;;;;;;10.30;3.50;;;;;;;12.07;100.00;99579.34;5025381;28;20049;-70
2023/03/13 06:50:29;;;;;;;7.75;2.90;;;;;;;12.11;100.00;99593.16;4997867;28;20066;-68
2023/03/13 06:52:56;;;;;;;10.88;2.85;;;;;;;12.13;100.00;99591.84;4997454;28;20505;-71
2023/03/13 06:55:21;;;;;;;8.32;3.10;;;;;;;12.11;100.00;99590.47;5014980;28;20030;-71
2023/03/13 06:57:51;;;;;;;8.68;3.10;;;;;;;12.09;100.00;99582.59;5011232;28;20103;-71
2023/03/13 07:00:17;;;;;;;9.88;3.28;;;;;;;12.12;100.00;99576.63;5013649;28;20036;-71
2023/03/13 07:02:42;;;;;;;10.63;3.10;;;;;;;12.16;100.00;99577.75;5012539;28;20033;-70
2023/03/13 07:05:08;;;;;;;11.10;3.00;;;;;;;12.19;100.00;99577.22;5010567;28;20044;-69
2023/03/13 07:07:34;;;;;;;10.32;3.30;;;;;;;12.18;100.00;99572.06;5013470;28;20480;-70
2023/03/13 07:09:59;;;;;;;10.07;3.17;;;;;;;12.17;100.00;99576.66;5013048;28;20030;-69
2023/03/13 07:12:24;;;;;;;8.73;3.10;;;;;;;12.21;100.00;99580.47;5014442;28;20152;-71
2023/03/13 07:14:50;;;;;;;11.30;3.55;;;;;;;12.21;100.00;99577.78;5015449;28;20034;-71
2023/03/13 07:17:15;;;;;;;9.27;3.15;;;;;;;12.23;100.00;99577.50;5015939;28;20037;-70
2023/03/13 07:19:40;;;;;;;8.48;2.90;;;;;;;12.26;100.00;99581.56;5033663;28;20134;-70
2023/03/13 07:22:06;;;;;;;9.07;3.00;;;;;;;12.27;100.00;99566.94;5023276;28;20466;-71
2023/03/13 07:24:31;;;;;;;7.97;3.00;;;;;;;12.28;100.00;99572.09;5014192;28;20573;-71
2023/03/13 07:26:57;;;;;;;9.05;2.97;;;;;;;12.29;100.00;99570.16;5012158;28;20049;-69
2023/03/13 07:29:22;;;;;;;9.05;3.25;;;;;;;12.30;100.00;99571.81;5014772;28;20029;-69
2023/03/13 07:31:47;;;;;;;10.65;3.10;;;;;;;12.33;100.00;99574.78;5012914;28;20076;-71
2023/03/13 07:34:12;;;;;;;7.32;2.80;;;;;;;12.35;100.00;99582.66;5013668;28;20030;-69
2023/03/13 07:36:40;;;;;;;8.15;2.67;;;;;;;12.41;100.00;99573.47;5022979;28;20595;-71
2023/03/13 07:39:06;;;;;;;8.75;2.95;;;;;;;12.37;100.00;99578.59;5033584;28;20079;-71
2023/03/13 07:41:31;;;;;;;9.40;3.25;;;;;;;12.44;100.00;99575.66;5007013;28;20042;-71
2023/03/13 07:43:56;;;;;;;7.95;2.85;;;;;;;12.46;100.00;99578.91;4995290;28;20054;-71
2023/03/13 07:46:22;;;;;;;10.90;3.10;;;;;;;12.46;100.00;99578.91;5007668;28;20112;-71
2023/03/13 07:48:47;;;;;;;10.88;2.90;;;;;;;12.48;100.00;99590.28;5014219;28;20129;-72
2023/03/13 07:51:18;;;;;;;12.18;3.25;;;;;;;12.45;100.00;99585.41;5013570;28;20033;-70
2023/03/13 07:53:46;;;;;;;9.35;3.10;;;;;;;12.46;100.00;99587.03;5012398;28;20152;-72
2023/03/13 07:56:14;;;;;;;9.75;2.72;;;;;;;12.46;100.00;99602.50;5013801;28;20041;-71
2023/03/13 07:58:40;;;;;;;9.75;3.20;;;;;;;12.45;100.00;99584.59;5013284;28;20511;-70
2023/03/13 08:01:10;;;;;;;9.27;3.05;;;;;;;12.44;100.00;99578.38;5024169;28;20033;-71
2023/03/13 08:03:36;;;;;;;10.73;2.95;;;;;;;12.44;100.00;99572.94;5011298;28;20121;-69
2023/03/13 08:06:07;;;;;;;8.63;3.25;;;;;;;12.49;100.00;99574.84;5011042;28;20029;-71
2023/03/13 08:08:33;;;;;;;10.18;3.22;;;;;;;12.55;100.00;99568.34;5031194;28;20120;-70
2023/03/13 08:11:06;;;;;;;10.38;3.15;;;;;;;12.58;100.00;99574.03;5020483;28;20083;-69
2023/03/13 08:13:32;;;;;;;10.40;2.75;;;;;;;12.62;100.00;99568.91;5011877;28;20121;-69
2023/03/13 08:16:06;;;;;;;12.18;3.58;;;;;;;12.65;100.00;99567.53;5013935;28;20088;-72
2023/03/13 08:18:34;;;;;;;8.02;2.83;;;;;;;12.68;100.00;99556.97;5012266;28;20037;-71
2023/03/13 08:21:01;;;;;;;12.32;3.33;;;;;;;12.69;100.00;99547.72;5014093;28;20033;-69
2023/03/13 08:23:27;;;;;;;10.50;3.00;;;;;;;12.73;100.00;99551.50;4991864;28;20410;-71
2023/03/13 08:25:52;;;;;;;10.50;3.03;;;;;;;12.76;100.00;99547.47;4993315;28;20030;-72
2023/03/13 08:28:17;;;;;;;8.73;2.90;;;;;;;12.82;100.00;99546.38;5009307;28;20087;-70
2023/03/13 08:30:43;;;;;;;9.55;3.00;;;;;;;12.83;100.00;99552.59;5014221;28;20079;-70
2023/03/13 08:33:08;;;;;;;8.32;3.00;;;;;;;12.90;100.00;99550.44;4994836;28;20033;-72
2023/03/13 08:35:33;;;;;;;8.30;2.72;;;;;;;12.95;100.00;99547.69;5012721;28;20356;-70
2023/03/13 08:37:58;;;;;;;9.43;2.83;;;;;;;13.00;100.00;99549.59;5012020;28;20033;-71
2023/03/13 08:40:24;;;;;;;8.77;2.70;;;;;;;13.04;100.00;99542.53;5017149;28;20041;-70
2023/03/13 08:42:49;;;;;;;8.88;2.72;;;;;;;13.03;100.00;99543.63;5013769;28;20057;-70
2023/03/13 08:45:15;;;;;;;7.45;2.40;;;;;;;13.10;100.00;99536.00;5012105;28;20385;-70
2023/03/13 08:47:40;;;;;;;14.77;2.50;;;;;;;13.12;100.00;99534.66;5019323;28;20077;-73
2023/03/13 08:50:06;;;;;;;8.77;2.20;;;;;;;13.19;100.00;99552.56;5001772;28;20493;-70
2023/03/13 08:52:31;;;;;;;7.97;2.53;;;;;;;13.20;100.00;99554.22;4998684;28;20129;-71
2023/03/13 08:54:57;;;;;;;5.63;2.35;;;;;;;13.24;100.00;99568.84;5007263;28;20040;-71
2023/03/13 08:57:22;;;;;;;6.35;2.05;;;;;;;13.23;100.00;99542.78;5012422;28;20049;-71
2023/03/13 08:59:49;;;;;;;5.68;2.13;;;;;;;13.24;100.00;99539.81;5012709;28;20025;-72
2023/03/13 09:02:18;;;;;;;6.78;2.20;;;;;;;13.23;100.00;99532.72;4992722;28;20045;-72
2023/03/13 09:04:44;;;;;;;6.68;2.05;;;;;;;13.25;100.00;99549.56;5014688;28;20057;-71
2023/03/13 09:07:10;;;;;;;3.50;2.20;;;;;;;13.27;100.00;99536.53;5015087;28;20485;-72
2023/03/13 09:09:35;;;;;;;5.50;2.13;;;;;;;13.28;100.00;99542.78;5031945;28;20212;-72
2023/03/13 09:12:00;;;;;;;7.63;2.22;;;;;;;13.24;100.00;99534.38;5028762;28;20033;-72
2023/03/13 09:14:26;;;;;;;6.45;2.30;;;;;;;13.25;100.00;99544.13;5029938;28;20079;-71
2023/03/13 09:16:51;;;;;;;9.15;2.53;;;;;;;13.24;100.00;99526.22;5032099;28;20057;-72
2023/03/13 09:19:16;;;;;;;9.00;3.13;;;;;;;13.27;100.00;99528.38;5031975;28;20033;-74
2023/03/13 09:21:42;;;;;;;6.93;2.35;;;;;;;13.29;100.00;99522.69;5032405;28;20025;-74
2023/03/13 09:24:07;;;;;;;8.23;2.72;;;;;;;13.33;100.00;99512.06;5032189;28;20026;-75
2023/03/13 09:26:32;;;;;;;7.10;2.70;;;;;;;13.39;100.00;99517.25;5030237;28;20095;-74
2023/03/13 09:28:58;;;;;;;5.63;2.72;;;;;;;13.46;100.00;99511.50;5029867;28;20037;-73
2023/03/13 09:31:26;;;;;;;8.63;2.88;;;;;;;13.53;100.00;99512.03;5010406;28;20033;-73
2023/03/13 09:33:52;;;;;;;7.45;2.47;;;;;;;13.56;100.00;99499.81;5012519;28;20026;-73
2023/03/13 09:36:19;;;;;;;7.00;2.42;;;;;;;13.67;100.00;99492.41;4994515;28;20033;-73
2023/03/13 09:38:44;;;;;;;5.03;2.28;;;;;;;13.71;100.00;99491.56;4994474;28;20061;-72
2023/03/13 09:41:16;;;;;;;8.18;2.33;;;;;;;13.80;100.00;99470.06;5012020;28;20030;-73
2023/03/13 09:44:06;;;;;;;5.57;2.28;;;;;;;13.88;100.00;99463.22;5024772;28;20026;-74
2023/03/13 09:46:34;;;;;;;5.13;2.05;;;;;;;13.98;100.00;99474.84;5013884;28;20087;-74
2023/03/13 09:49:04;;;;;;;3.80;2.25;;;;;;;14.05;100.00;99468.28;5031728;28;20049;-72
2023/03/13 09:51:37;;;;;;;6.25;2.10;;;;;;;14.10;100.00;99471.78;5031443;28;20025;-72
2023/03/13 09:54:20;;;;;;;5.85;2.08;;;;;;;14.15;100.00;99457.34;5030952;28;20372;-73
2023/03/13 09:57:14;;;;;;;4.65;2.35;;;;;;;14.17;100.00;99474.97;5010361;28;20053;-72
2023/03/13 09:59:42;;;;;;;5.40;1.92;;;;;;;14.21;100.00;99456.19;5027091;28;20033;-73
2023/03/13 10:02:25;;;;;;;6.13;2.00;;;;;;;14.27;100.00;99462.41;5014843;28;20114;-72
2023/03/13 10:04:58;;;;;;;4.20;1.90;;;;;;;14.27;100.00;99456.97;5035867;28;20115;-73
2023/03/13 10:07:23;;;;;;;2.63;1.63;;;;;;;14.26;100.00;99466.22;5035795;28;20026;-73
2023/03/13 10:09:49;;;;;;;4.05;1.70;;;;;;;14.28;100.00;99451.25;5036091;28;20029;-71
2023/03/13 10:12:23;;;;;;;6.35;1.80;;;;;;;14.32;100.00;99473.25;5033162;28;20026;-72
2023/03/13 10:15:26;;;;;;;4.22;1.70;;;;;;;14.39;100.00;99462.88;5030849;28;20483;-73
2023/03/13 10:17:52;;;;;;;3.72;1.70;;;;;;;14.43;100.00;99442.16;5035980;28;20037;-75
2023/03/13 10:20:24;;;;;;;7.97;1.90;;;;;;;14.46;100.00;99448.91;5035151;28;20041;-76
2023/03/13 10:22:54;;;;;;;4.15;1.52;;;;;;;14.49;100.00;99446.47;5018144;28;20392;-72
2023/03/13 10:25:28;;;;;;;6.70;1.80;;;;;;;14.57;100.00;99442.31;5033243;28;20061;-76
2023/03/13 10:27:54;;;;;;;4.32;2.22;;;;;;;14.63;100.00;99462.97;5018319;28;20235;-74
2023/03/13 10:30:31;;;;;;;5.68;1.70;;;;;;;14.61;100.00;99442.56;5018196;28;20156;-76
2023/03/13 10:33:15;;;;;;;4.32;1.80;;;;;;;14.57;100.00;99431.41;5035922;28;20029;-73
2023/03/13 10:35:42;;;;;;;4.35;1.60;;;;;;;14.58;100.00;99427.56;5034336;28;20030;-72
2023/03/13 10:38:11;;;;;;;6.53;1.80;;;;;;;14.58;100.00;99433.00;5032240;28;20481;-72
2023/03/13 10:40:37;;;;;;;2.60;1.48;;;;;;;14.62;100.00;99447.72;5035535;28;20151;-72
2023/03/13 10:43:17;;;;;;;3.58;1.92;;;;;;;14.70;100.00;99422.59;5035884;28;20064;-71
2023/03/13 10:45:43;;;;;;;3.30;1.83;;;;;;;14.69;100.00;99420.97;5035454;28;20022;-71
2023/03/13 10:48:19;;;;;;;2.92;1.60;;;;;;;14.73;100.00;99412.22;5017886;28;20065;-72
2023/03/13 10:50:47;;;;;;;3.85;1.60;;;;;;;14.70;100.00;99414.44;4997421;28;20038;-70
2023/03/13 10:53:29;;;;;;;4.20;1.70;;;;;;;14.74;100.00;99427.47;4990238;28;20172;-70
2023/03/13 10:56:22;;;;;;;3.78;1.55;;;;;;;14.80;100.00;99429.06;4978290;28;20092;-72
2023/03/13 10:58:50;;;;;;;5.20;1.67;;;;;;;14.76;100.00;99426.06;5008105;28;20420;-71
2023/03/13 11:01:23;;;;;;;4.10;1.60;;;;;;;14.80;100.00;99408.06;4991856;28;20049;-72
2023/03/13 11:03:50;;;;;;;3.05;1.60;;;;;;;14.81;100.00;99419.75;4996135;28;20041;-71
2023/03/13 11:06:29;;;;;;;4.72;1.58;;;;;;;14.86;100.00;99400.66;4990927;28;20038;-73
2023/03/13 11:09:13;;;;;;;3.30;1.23;;;;;;;14.86;100.00;99395.22;4983224;28;20499;-76
2023/03/13 11:11:53;;;;;;;4.93;1.95;;;;;;;14.90;100.00;99407.16;4984947;28;20078;-70
2023/03/13 11:14:23;;;;;;;4.65;1.55;;;;;;;14.88;100.00;99407.41;4995990;28;20497;-75
2023/03/13 11:16:53;;;;;;;3.28;1.42;;;;;;;14.92;100.00;99404.16;4995495;28;20596;-72
2023/03/13 11:19:24;;;;;;;3.55;1.50;;;;;;;14.94;98.11;99402.72;4995696;28;20035;-73
2023/03/13 11:21:53;;;;;;;;;;;;;;;15.06;97.38;99410.50;4996066;28;20145;-71
2023/03/13 11:24:27;;;;;;;5.60;1.15;;;;;;;15.03;94.03;99401.00;4978117;28;19916;-73
2023/03/13 11:26:58;;;;;;;4.70;1.80;;;;;;;15.19;85.34;99409.81;4978235;28;20410;-71